Time;durP1;ratioP1;P1;durP2;ratioP2;P2;SDS_P1;SDS_P2;PMS_P1;PMS_P2;Temp;Humidity;BMP_temperature;BMP_pressure;BME280_temperature;BME280_humidity;BME280_pressure;Samples;Min_cycle;Max_cycle;Signal;HPM_P1;HPM_P2
2021/01/09 00:00:28;;;;;;;;;;;;;;;-0.08;100.00;92747.72;5011104;28;20049;-93
2021/01/09 00:02:55;;;;;;;1.42;0.75;;;;;;;0.07;100.00;92747.09;5010918;28;19999;-92
2021/01/09 00:05:21;;;;;;;;;;;;;;;0.19;100.00;92765.25;5011188;28;20049;-93
2021/01/09 00:07:48;;;;;;;0.88;0.60;;;;;;;0.19;100.00;92775.38;5011101;28;19921;-94
2021/01/09 00:10:14;;;;;;;0.77;0.47;;;;;;;0.05;100.00;92769.19;5011657;28;20493;-94
2021/01/09 00:12:40;;;;;;;;;;;;;;;0.20;100.00;92759.25;5011888;28;20041;-94
2021/01/09 00:15:08;;;;;;;0.68;0.55;;;;;;;0.28;100.00;92766.84;5012219;28;19925;-93
2021/01/09 00:17:35;;;;;;;1.40;0.90;;;;;;;0.32;100.00;92762.28;5012690;28;20421;-93
2021/01/09 00:20:01;;;;;;;1.05;0.88;;;;;;;0.16;100.00;92770.63;5016533;28;20046;-93
2021/01/09 00:22:28;;;;;;;1.92;1.67;;;;;;;0.36;100.00;92761.00;5015988;28;20050;-92
2021/01/09 00:24:55;;;;;;;1.98;1.05;;;;;;;0.35;100.00;92742.53;5014755;28;20054;-93
2021/01/09 00:27:21;;;;;;;1.90;1.00;;;;;;;0.42;100.00;92757.06;5014267;28;20046;-92
2021/01/09 00:29:47;;;;;;;;;;;;;;;0.38;100.00;92754.81;5014794;28;20053;-93
2021/01/09 00:32:13;;;;;;;2.50;1.52;;;;;;;0.15;100.00;92737.00;5014509;28;19922;-94
2021/01/09 00:34:40;;;;;;;1.50;1.13;;;;;;;0.29;100.00;92752.47;5014289;28;20490;-94
2021/01/09 00:37:06;;;;;;;1.70;0.80;;;;;;;0.34;100.00;92751.06;5014181;28;20054;-94
2021/01/09 00:39:32;;;;;;;;;;;;;;;0.62;100.00;92748.19;5014769;28;20057;-93
2021/01/09 00:42:00;;;;;;;2.35;1.45;;;;;;;0.64;100.00;92748.81;5014706;28;19921;-93
2021/01/09 00:44:27;;;;;;;2.33;1.45;;;;;;;0.72;100.00;92749.75;5014742;28;20061;-94
2021/01/09 00:46:54;;;;;;;1.33;0.90;;;;;;;0.90;100.00;92752.09;5014986;28;20077;-94
2021/01/09 00:49:21;;;;;;;3.25;1.42;;;;;;;1.09;100.00;92753.47;5016356;28;20053;-96
2021/01/09 00:51:47;;;;;;;;;;;;;;;1.23;100.00;92766.38;5028250;28;20034;-93
2021/01/09 00:54:13;;;;;;;2.83;1.13;;;;;;;1.19;100.00;92763.38;5024800;28;20301;-95
2021/01/09 00:56:39;;;;;;;3.38;1.88;;;;;;;1.22;100.00;92770.66;5023093;28;20049;-92
2021/01/09 00:59:06;;;;;;;1.75;0.82;;;;;;;1.31;100.00;92776.47;5022463;28;20053;-94
2021/01/09 01:01:32;;;;;;;2.25;0.85;;;;;;;1.29;100.00;92769.03;5016351;28;20053;-93
2021/01/09 01:03:59;;;;;;;;;;;;;;;1.32;100.00;92768.72;5015056;28;20513;-90
2021/01/09 01:06:25;;;;;;;4.07;1.88;;;;;;;1.31;100.00;92761.31;5014943;28;20271;-94
2021/01/09 01:08:51;;;;;;;;;;;;;;;1.31;100.00;92769.66;5019118;28;20058;-92
2021/01/09 01:11:24;;;;;;;1.92;0.50;;;;;;;1.12;100.00;92747.28;5018135;28;19921;-95
2021/01/09 01:13:51;;;;;;;1.30;1.02;;;;;;;0.99;100.00;92745.25;5017701;28;20522;-95
2021/01/09 01:16:18;;;;;;;4.07;1.80;;;;;;;1.11;100.00;92751.53;5015046;28;20042;-94
2021/01/09 01:18:44;;;;;;;2.65;1.50;;;;;;;1.11;100.00;92763.44;5014222;28;20046;-95
2021/01/09 01:21:11;;;;;;;2.03;1.10;;;;;;;1.24;100.00;92771.28;5014081;28;20049;-95
2021/01/09 01:23:37;;;;;;;3.45;1.98;;;;;;;1.35;100.00;92752.44;5013410;28;20425;-94
2021/01/09 01:26:03;;;;;;;;;;;;;;;1.44;100.00;92764.09;5014399;28;20049;-94
2021/01/09 01:28:29;;;;;;;2.38;1.08;;;;;;;1.34;100.00;92758.44;5013614;28;19933;-94
2021/01/09 01:30:55;;;;;;;;;;;;;;;1.26;100.00;92759.28;5014127;28;20054;-94
2021/01/09 01:33:22;;;;;;;0.95;0.60;;;;;;;1.08;100.00;92751.88;5013884;28;20297;-95
2021/01/09 01:35:49;;;;;;;3.35;1.33;;;;;;;1.01;100.00;92751.75;5015527;28;20058;-95
2021/01/09 01:38:15;;;;;;;;;;;;;;;1.14;100.00;92753.75;5014326;28;20057;-95
2021/01/09 01:40:41;;;;;;;1.05;0.77;;;;;;;1.18;100.00;92760.09;5013927;28;19921;-95
2021/01/09 01:43:10;;;;;;;;;;;;;;;1.19;100.00;92766.72;5014135;28;20092;-94
2021/01/09 01:45:37;;;;;;;2.65;0.68;;;;;;;1.14;100.00;92750.44;5013709;28;19921;-95
2021/01/09 01:48:05;;;;;;;3.55;1.02;;;;;;;1.26;100.00;92749.16;5013564;28;20058;-96
2021/01/09 01:50:32;;;;;;;5.82;1.15;;;;;;;1.27;100.00;92737.28;5013169;28;20509;-95
2021/01/09 01:53:00;;;;;;;2.42;1.45;;;;;;;1.33;100.00;92745.00;5012730;28;20061;-94
2021/01/09 01:55:26;;;;;;;2.55;1.33;;;;;;;1.30;100.00;92736.94;5013708;28;20046;-94
2021/01/09 01:57:52;;;;;;;;;;;;;;;1.43;100.00;92762.50;5013406;28;20046;-96
2021/01/09 02:00:24;;;;;;;2.50;1.58;;;;;;;1.41;100.00;92763.63;5012782;28;20392;-93
2021/01/09 02:02:50;;;;;;;3.20;1.88;;;;;;;1.42;100.00;92757.59;5012495;28;20049;-94
2021/01/09 02:05:21;;;;;;;3.00;1.35;;;;;;;1.44;100.00;92765.84;5013311;28;20050;-93
2021/01/09 02:07:49;;;;;;;3.00;2.40;;;;;;;1.39;100.00;92752.88;5012583;28;20042;-95
2021/01/09 02:10:16;;;;;;;1.85;1.15;;;;;;;1.46;100.00;92769.78;5012436;28;20041;-93
2021/01/09 02:12:46;;;;;;;2.10;1.88;;;;;;;1.46;100.00;92763.94;5012549;28;20050;-95
2021/01/09 02:15:16;;;;;;;2.65;1.33;;;;;;;1.48;100.00;92758.69;5012754;28;20054;-94
2021/01/09 02:17:44;;;;;;;3.47;2.28;;;;;;;1.43;100.00;92759.97;5012167;28;20100;-93
2021/01/09 02:20:12;;;;;;;2.78;1.67;;;;;;;1.30;100.00;92740.25;5012505;28;20409;-94
2021/01/09 02:22:42;;;;;;;3.22;2.03;;;;;;;1.41;100.00;92745.91;5012261;28;20494;-94
2021/01/09 02:25:09;;;;;;;4.88;2.05;;;;;;;1.55;100.00;92762.13;5012150;28;20548;-93
2021/01/09 02:27:35;;;;;;;4.78;3.05;;;;;;;1.56;100.00;92766.25;5012263;28;20050;-94
2021/01/09 02:30:07;;;;;;;2.15;1.60;;;;;;;1.55;100.00;92770.53;5012079;28;20065;-94
2021/01/09 02:32:43;;;;;;;3.40;2.20;;;;;;;1.47;100.00;92757.91;5011957;28;20046;-94
2021/01/09 02:35:13;;;;;;;2.90;1.52;;;;;;;1.56;100.00;92766.25;5012285;28;20394;-95
2021/01/09 02:37:40;;;;;;;2.53;1.48;;;;;;;1.60;100.00;92763.25;5011820;28;20060;-94
2021/01/09 02:40:08;;;;;;;4.28;2.78;;;;;;;1.61;100.00;92758.94;5011944;28;20058;-94
2021/01/09 02:42:35;;;;;;;3.92;2.30;;;;;;;1.60;100.00;92763.25;5011292;28;20053;-92
2021/01/09 02:45:05;;;;;;;2.97;1.60;;;;;;;1.53;100.00;92761.53;5011707;28;20056;-94
2021/01/09 02:47:31;;;;;;;2.85;1.15;;;;;;;1.58;100.00;92756.75;5011540;28;20061;-92
2021/01/09 02:49:57;;;;;;;0.60;0.40;;;;;;;1.59;100.00;92755.81;5011866;28;20054;-94
2021/01/09 02:52:23;;;;;;;1.20;0.88;;;;;;;1.59;100.00;92754.03;5011852;28;20437;-93
2021/01/09 02:54:50;;;;;;;1.30;0.73;;;;;;;1.57;100.00;92750.13;5011590;28;20100;-93
2021/01/09 02:57:17;;;;;;;4.55;1.65;;;;;;;1.61;100.00;92756.41;5011358;28;20104;-91
2021/01/09 02:59:43;;;;;;;1.85;0.80;;;;;;;1.55;100.00;92762.13;5011447;28;20052;-93
2021/01/09 03:02:09;;;;;;;1.00;0.68;;;;;;;1.55;100.00;92752.03;5011675;28;20429;-94
2021/01/09 03:04:35;;;;;;;4.05;1.48;;;;;;;1.57;100.00;92757.72;5011629;28;20050;-92
2021/01/09 03:07:02;;;;;;;2.03;1.33;;;;;;;1.53;100.00;92764.06;5011551;28;20462;-92
2021/01/09 03:09:28;;;;;;;1.67;0.90;;;;;;;1.56;100.00;92763.72;5011454;28;20061;-92
2021/01/09 03:11:54;;;;;;;;;;;;;;;1.56;100.00;92758.66;5011766;28;20042;-91
2021/01/09 03:14:21;;;;;;;0.82;0.52;;;;;;;1.40;100.00;92742.59;5011279;28;20332;-92
2021/01/09 03:16:47;;;;;;;2.05;0.77;;;;;;;1.50;100.00;92761.84;5011402;28;20050;-90
2021/01/09 03:19:14;;;;;;;1.38;0.63;;;;;;;1.49;100.00;92765.34;5011347;28;20059;-89
2021/01/09 03:21:40;;;;;;;;;;;;;;;1.45;100.00;92769.94;5011774;28;20054;-91
2021/01/09 03:24:07;;;;;;;1.67;0.77;;;;;;;1.34;100.00;92758.44;5011201;28;20406;-91
2021/01/09 03:26:33;;;;;;;0.35;0.25;;;;;;;1.33;100.00;92757.66;5011075;28;20045;-90
2021/01/09 03:28:59;;;;;;;;;;;;;;;1.33;100.00;92759.38;5011444;28;20046;-91
2021/01/09 03:31:28;;;;;;;2.58;1.13;;;;;;;1.18;100.00;92762.63;5011322;28;19922;-91
2021/01/09 03:33:54;;;;;;;2.60;0.50;;;;;;;1.14;100.00;92779.06;5011076;28;20053;-89
2021/01/09 03:36:20;;;;;;;;;;;;;;;1.09;100.00;92777.94;5011573;28;20050;-91
2021/01/09 03:38:46;;;;;;;2.25;0.88;;;;;;;1.03;100.00;92784.47;5010972;28;19928;-90
2021/01/09 03:41:12;;;;;;;4.63;2.38;;;;;;;1.03;100.00;92776.88;5010898;28;20038;-92
2021/01/09 03:43:38;;;;;;;5.95;1.60;;;;;;;1.12;100.00;92792.81;5011239;28;20050;-91
2021/01/09 03:46:04;;;;;;;;;;;;;;;1.14;100.00;92785.84;5011540;28;20096;-90
2021/01/09 03:48:32;;;;;;;2.40;0.98;;;;;;;1.17;100.00;92791.38;5010965;28;20301;-91
2021/01/09 03:50:58;;;;;;;3.90;1.02;;;;;;;1.21;100.00;92789.31;5011043;28;20050;-91
2021/01/09 03:53:24;;;;;;;3.50;1.85;;;;;;;1.25;100.00;92790.56;5013645;28;20045;-92
2021/01/09 03:55:50;;;;;;;1.95;0.82;;;;;;;1.27;100.00;92800.53;5014810;28;20096;-89
2021/01/09 03:58:16;;;;;;;1.83;1.02;;;;;;;1.13;100.00;92784.28;5014790;28;20100;-91
2021/01/09 04:00:42;;;;;;;;;;;;;;;1.17;100.00;92783.78;5015289;28;20049;-91
2021/01/09 04:03:09;;;;;;;3.20;1.48;;;;;;;1.17;100.00;92768.59;5014933;28;19933;-91
2021/01/09 04:05:36;;;;;;;3.58;1.52;;;;;;;1.31;100.00;92804.31;5014692;28;20395;-91
2021/01/09 04:08:02;;;;;;;9.20;3.05;;;;;;;1.31;100.00;92801.78;5014712;28;20116;-90
2021/01/09 04:10:28;;;;;;;3.58;1.52;;;;;;;1.35;100.00;92794.66;5014534;28;20053;-91
2021/01/09 04:12:55;;;;;;;3.42;1.95;;;;;;;1.30;100.00;92806.03;5014755;28;21048;-90
2021/01/09 04:15:21;;;;;;;2.53;1.95;;;;;;;1.34;100.00;92806.50;5014681;28;20506;-90
2021/01/09 04:17:47;;;;;;;1.58;1.00;;;;;;;1.38;100.00;92804.47;5014452;28;20053;-90
2021/01/09 04:20:13;;;;;;;2.05;1.20;;;;;;;1.43;100.00;92812.34;5014516;28;20109;-90
2021/01/09 04:22:41;;;;;;;7.20;3.47;;;;;;;1.37;100.00;92813.78;5014378;28;20053;-90
2021/01/09 04:25:08;;;;;;;4.25;2.80;;;;;;;1.41;100.00;92821.84;5014206;28;20058;-90
2021/01/09 04:27:34;;;;;;;7.32;3.10;;;;;;;1.34;100.00;92811.56;5014234;28;20069;-90
2021/01/09 04:30:00;;;;;;;;;;;;;;;1.44;100.00;92806.34;5014631;28;20414;-90
2021/01/09 04:32:29;;;;;;;3.22;1.73;;;;;;;1.35;100.00;92800.50;5014560;28;19925;-90
2021/01/09 04:34:55;;;;;;;4.03;2.10;;;;;;;1.44;100.00;92819.75;5014101;28;20137;-91
2021/01/09 04:37:22;;;;;;;;;;;;;;;1.40;100.00;92826.13;5014491;28;20057;-90
2021/01/09 04:39:50;;;;;;;3.22;1.90;;;;;;;1.45;100.00;92828.94;5014321;28;19921;-89
2021/01/09 04:42:16;;;;;;;2.13;1.90;;;;;;;1.52;100.00;92824.00;5014122;28;20054;-91
2021/01/09 04:44:42;;;;;;;4.32;2.42;;;;;;;1.50;100.00;92822.59;5014064;28;20050;-91
2021/01/09 04:47:10;;;;;;;4.47;2.38;;;;;;;1.54;100.00;92836.50;5013544;28;20100;-89
2021/01/09 04:49:38;;;;;;;2.85;1.52;;;;;;;1.49;100.00;92829.41;5014057;28;20046;-91
2021/01/09 04:52:06;;;;;;;1.55;0.80;;;;;;;1.53;100.00;92845.06;5029329;28;20540;-89
2021/01/09 04:54:33;;;;;;;1.77;1.20;;;;;;;1.53;100.00;92850.13;5033799;28;20115;-90
2021/01/09 04:57:00;;;;;;;0.80;0.40;;;;;;;1.49;100.00;92852.19;5024984;28;20038;-90
2021/01/09 04:59:26;;;;;;;1.65;1.52;;;;;;;1.48;100.00;92862.47;5021714;28;20516;-91
2021/01/09 05:01:53;;;;;;;;;;;;;;;1.45;100.00;92849.19;5031026;28;20057;-90
2021/01/09 05:04:20;;;;;;;1.77;1.30;;;;;;;1.48;100.00;92855.66;5032633;28;19921;-90
2021/01/09 05:06:47;;;;;;;2.28;1.13;;;;;;;1.45;100.00;92856.00;5029481;28;20537;-90
2021/01/09 05:09:14;;;;;;;3.15;1.80;;;;;;;1.45;100.00;92850.94;5022762;28;20184;-91
2021/01/09 05:11:42;;;;;;;7.43;2.13;;;;;;;1.47;100.00;92861.69;5022900;28;20042;-92
2021/01/09 05:14:10;;;;;;;2.20;1.08;;;;;;;1.49;100.00;92859.78;5022254;28;20701;-90
2021/01/09 05:16:37;;;;;;;1.45;1.05;;;;;;;1.52;100.00;92869.56;5021161;28;20413;-89
2021/01/09 05:19:05;;;;;;;1.58;1.02;;;;;;;1.51;100.00;92879.84;5030126;28;20064;-90
2021/01/09 05:21:35;;;;;;;2.42;1.42;;;;;;;1.49;100.00;92884.31;5033224;28;20050;-90
2021/01/09 05:24:03;;;;;;;4.15;1.40;;;;;;;1.45;100.00;92887.16;5017407;28;20125;-90
2021/01/09 05:26:31;;;;;;;1.85;1.48;;;;;;;1.36;100.00;92880.53;5020989;28;20054;-89
2021/01/09 05:28:59;;;;;;;1.27;0.68;;;;;;;1.43;100.00;92899.19;5013277;28;20042;-89
2021/01/09 05:31:30;;;;;;;1.40;1.15;;;;;;;1.32;100.00;92902.06;5013196;28;20056;-89
2021/01/09 05:33:56;;;;;;;1.20;0.77;;;;;;;1.31;100.00;92901.25;5020213;28;20041;-89
2021/01/09 05:36:22;;;;;;;;;;;;;;;1.27;100.00;92901.75;5033320;28;20052;-90
2021/01/09 05:38:50;;;;;;;2.08;1.42;;;;;;;1.10;100.00;92889.09;5032632;28;19971;-89
2021/01/09 05:41:18;;;;;;;4.07;2.03;;;;;;;1.02;100.00;92901.78;5032817;28;20111;-89
2021/01/09 05:43:47;;;;;;;2.35;1.35;;;;;;;1.08;100.00;92918.03;5032716;28;20091;-90
2021/01/09 05:46:15;;;;;;;4.25;2.60;;;;;;;0.91;100.00;92893.56;5032352;28;20061;-89
2021/01/09 05:48:42;;;;;;;3.22;2.00;;;;;;;1.13;100.00;92919.16;5032704;28;20045;-91
2021/01/09 05:51:12;;;;;;;12.93;2.70;;;;;;;1.10;100.00;92926.28;5024444;28;20049;-90
2021/01/09 05:53:40;;;;;;;5.47;2.20;;;;;;;1.17;100.00;92924.69;5012760;28;20482;-90
2021/01/09 05:56:07;;;;;;;3.03;1.48;;;;;;;1.01;100.00;92911.09;5012799;28;20494;-90
2021/01/09 05:58:34;;;;;;;2.92;1.70;;;;;;;1.00;100.00;92911.25;5012463;28;20414;-89
2021/01/09 06:01:08;;;;;;;6.55;3.53;;;;;;;1.14;100.00;92912.34;5020303;28;20042;-90
2021/01/09 06:03:45;;;;;;;9.07;2.25;;;;;;;1.24;100.00;92907.13;5032394;28;20053;-90
2021/01/09 06:06:27;;;;;;;6.40;2.75;;;;;;;1.29;100.00;92908.22;5032516;28;20056;-90
2021/01/09 06:08:57;;;;;;;8.00;4.43;;;;;;;1.24;100.00;92905.38;5032181;28;20095;-90
2021/01/09 06:11:30;;;;;;;4.18;2.83;;;;;;;1.22;100.00;92914.88;5032076;28;20405;-91
2021/01/09 06:13:59;;;;;;;4.72;3.60;;;;;;;1.33;100.00;92913.75;5032215;28;20054;-91
2021/01/09 06:16:28;;;;;;;3.97;2.00;;;;;;;1.38;100.00;92914.06;5030990;28;20124;-90
2021/01/09 06:18:57;;;;;;;4.88;2.53;;;;;;;1.31;100.00;92920.72;5031914;28;20053;-90
2021/01/09 06:21:23;;;;;;;2.90;2.17;;;;;;;0.89;100.00;92876.94;5032035;28;20053;-91
2021/01/09 06:23:49;;;;;;;3.47;1.75;;;;;;;1.21;100.00;92931.00;5031832;28;20103;-90
2021/01/09 06:26:16;;;;;;;2.92;1.23;;;;;;;1.18;100.00;92941.44;5031666;28;20486;-91
2021/01/09 06:28:45;;;;;;;;;;;;;;;1.26;100.00;92938.13;5033462;28;20049;-89
2021/01/09 06:31:19;;;;;;;1.50;0.77;;;;;;;1.19;100.00;92932.91;5031705;28;20431;-90
2021/01/09 06:33:48;;;;;;;2.58;0.88;;;;;;;1.23;100.00;92958.66;5031652;28;20413;-89
2021/01/09 06:36:15;;;;;;;9.32;1.35;;;;;;;1.09;100.00;92957.56;5031540;28;20089;-89
2021/01/09 06:38:43;;;;;;;1.95;1.17;;;;;;;0.91;100.00;92966.09;5031490;28;20497;-88
2021/01/09 06:41:13;;;;;;;2.05;0.60;;;;;;;0.83;100.00;92973.66;5022090;28;20107;-90
2021/01/09 06:43:43;;;;;;;2.72;1.23;;;;;;;0.91;100.00;92981.25;5031620;28;20099;-88
2021/01/09 06:46:11;;;;;;;1.88;0.73;;;;;;;0.65;100.00;92987.22;5031411;28;20466;-88
2021/01/09 06:48:37;;;;;;;3.00;1.48;;;;;;;0.62;100.00;92990.84;5031376;28;20057;-89
2021/01/09 06:51:24;;;;;;;;;;;;;;;0.68;100.00;92986.91;5031808;28;20057;-89
2021/01/09 06:54:32;;;;;;;2.60;1.27;;;;;;;0.45;100.00;92969.78;5030938;28;19928;-90
2021/01/09 06:57:16;;;;;;;3.72;2.75;;;;;;;0.77;100.00;93015.53;5018292;28;20417;-90
2021/01/09 06:59:43;;;;;;;3.50;2.78;;;;;;;0.83;100.00;93011.59;5014408;28;20045;-88
2021/01/09 07:02:20;;;;;;;2.50;1.75;;;;;;;0.80;100.00;93010.94;5011589;28;20057;-90
2021/01/09 07:04:58;;;;;;;1.42;1.30;;;;;;;0.74;100.00;93006.50;5011808;28;20057;-91
2021/01/09 07:07:32;;;;;;;3.50;2.03;;;;;;;0.78;100.00;93027.22;5011150;28;20042;-89
2021/01/09 07:10:00;;;;;;;2.30;1.60;;;;;;;0.69;100.00;93030.69;5011585;28;20103;-90
2021/01/09 07:12:29;;;;;;;1.92;1.33;;;;;;;0.66;100.00;93019.91;5024957;28;20045;-88
2021/01/09 07:15:01;;;;;;;2.45;1.42;;;;;;;0.71;100.00;93042.22;5031083;28;20045;-90
2021/01/09 07:17:27;;;;;;;1.45;0.82;;;;;;;0.84;100.00;93054.44;5030924;28;20077;-88
2021/01/09 07:19:53;;;;;;;;;;;;;;;0.92;100.00;93061.22;5031288;28;20144;-90
2021/01/09 07:22:21;;;;;;;3.53;1.85;;;;;;;0.83;100.00;93052.84;5031175;28;19990;-90
2021/01/09 07:24:50;;;;;;;1.23;1.00;;;;;;;0.85;100.00;93056.03;5026727;28;20041;-89
2021/01/09 07:27:22;;;;;;;1.73;1.15;;;;;;;0.75;100.00;93076.34;5010800;28;20092;-90
2021/01/09 07:29:56;;;;;;;8.05;3.90;;;;;;;0.82;100.00;93076.53;5011101;28;20145;-89
2021/01/09 07:32:36;;;;;;;3.83;2.17;;;;;;;0.60;100.00;93050.09;5010947;28;20053;-87
2021/01/09 07:35:07;;;;;;;2.63;1.10;;;;;;;0.82;100.00;93094.25;5011331;28;20042;-90
2021/01/09 07:37:38;;;;;;;2.45;1.20;;;;;;;1.01;100.00;93098.25;5011042;28;20465;-92
2021/01/09 07:40:13;;;;;;;2.17;1.08;;;;;;;1.11;100.00;93092.28;5010955;28;20545;-91
2021/01/09 07:42:39;;;;;;;3.13;1.05;;;;;;;1.09;100.00;93089.09;5010911;28;20550;-89
2021/01/09 07:45:08;;;;;;;1.45;0.90;;;;;;;1.33;100.00;93098.47;5010733;28;20060;-89
2021/01/09 07:47:41;;;;;;;3.53;0.82;;;;;;;1.40;100.00;93096.13;5011170;28;20506;-89
2021/01/09 07:50:10;;;;;;;2.38;1.33;;;;;;;1.55;100.00;93106.44;5010839;28;20053;-92
2021/01/09 07:52:37;;;;;;;3.90;1.65;;;;;;;1.64;100.00;93097.09;5010994;28;20045;-89
2021/01/09 07:55:05;;;;;;;5.57;2.80;;;;;;;1.67;100.00;93100.09;5010882;28;20045;-90
2021/01/09 07:57:32;;;;;;;2.55;1.90;;;;;;;1.67;100.00;93112.00;5010505;28;20046;-90
2021/01/09 08:00:08;;;;;;;2.70;1.27;;;;;;;1.53;100.00;93098.22;5010784;28;20158;-90
2021/01/09 08:02:35;;;;;;;2.95;1.30;;;;;;;1.70;100.00;93094.72;5010913;28;20082;-89
2021/01/09 08:05:03;;;;;;;3.70;3.17;;;;;;;1.53;100.00;93083.03;5010693;28;20490;-89
2021/01/09 08:07:30;;;;;;;3.80;1.80;;;;;;;1.74;100.00;93102.81;5011207;28;20042;-91
2021/01/09 08:09:58;;;;;;;2.05;1.48;;;;;;;1.75;100.00;93099.31;5010597;28;20046;-91
2021/01/09 08:12:27;;;;;;;1.58;1.02;;;;;;;1.90;100.00;93101.22;5024312;28;20449;-92
2021/01/09 08:14:57;;;;;;;2.50;1.98;;;;;;;2.02;100.00;93099.13;5030619;28;20478;-90
2021/01/09 08:17:24;;;;;;;2.67;1.88;;;;;;;2.09;100.00;93088.22;5030756;28;20060;-91
2021/01/09 08:19:50;;;;;;;5.18;1.73;;;;;;;2.22;100.00;93102.16;5030428;28;20049;-89
2021/01/09 08:22:18;;;;;;;;;;;;;;;2.32;100.00;93104.50;5030745;28;20049;-89
2021/01/09 08:24:44;;;;;;;2.92;1.55;;;;;;;2.31;100.00;93108.00;5030501;28;19921;-90
2021/01/09 08:27:19;;;;;;;3.97;1.98;;;;;;;2.28;100.00;93104.03;5030245;28;20559;-91
2021/01/09 08:29:45;;;;;;;2.60;1.30;;;;;;;2.33;100.00;93108.63;5030406;28;20075;-90
2021/01/09 08:32:13;;;;;;;2.20;1.52;;;;;;;2.40;100.00;93107.00;5030324;28;20042;-90
2021/01/09 08:34:48;;;;;;;3.85;2.45;;;;;;;2.32;100.00;93117.19;5030233;28;20486;-91
2021/01/09 08:37:15;;;;;;;3.10;2.13;;;;;;;2.35;100.00;93122.72;5030227;28;20446;-91
2021/01/09 08:39:43;;;;;;;4.45;2.05;;;;;;;2.32;100.00;93133.16;5031709;28;20049;-90
2021/01/09 08:42:14;;;;;;;4.82;2.38;;;;;;;2.37;100.00;93125.88;5034400;28;20095;-91
2021/01/09 08:44:47;;;;;;;8.13;2.88;;;;;;;2.18;100.00;93111.78;5034645;28;20045;-91
2021/01/09 08:47:14;;;;;;;4.38;1.70;;;;;;;2.27;100.00;93128.59;5034129;28;20062;-90
2021/01/09 08:49:45;;;;;;;7.97;3.08;;;;;;;2.26;100.00;93124.47;5033621;28;20053;-90
2021/01/09 08:52:12;;;;;;;5.78;2.65;;;;;;;2.28;100.00;93121.78;5034034;28;20548;-91
2021/01/09 08:54:43;;;;;;;5.88;3.83;;;;;;;2.23;100.00;93109.56;5033696;28;20053;-91
2021/01/09 08:57:10;;;;;;;7.55;3.72;;;;;;;2.29;100.00;93123.38;5039078;28;20049;-91
2021/01/09 08:59:36;;;;;;;10.10;2.83;;;;;;;2.29;100.00;93120.03;5036212;28;20549;-92
2021/01/09 09:02:06;;;;;;;8.35;3.85;;;;;;;2.38;100.00;93117.34;5033373;28;20095;-91
2021/01/09 09:04:35;;;;;;;5.72;3.13;;;;;;;2.47;100.00;93112.22;5033451;28;20049;-91
2021/01/09 09:07:05;;;;;;;5.75;2.65;;;;;;;2.48;100.00;93108.75;5035011;28;20185;-91
2021/01/09 09:09:33;;;;;;;7.78;3.58;;;;;;;2.47;100.00;93099.56;5033448;28;20045;-93
2021/01/09 09:11:59;;;;;;;3.67;2.70;;;;;;;2.38;100.00;93086.13;5023773;28;20061;-92
2021/01/09 09:14:26;;;;;;;;;;;;;;;2.45;100.00;93104.00;5014849;28;20538;-91
2021/01/09 09:16:58;;;;;;;6.88;3.33;;;;;;;2.40;100.00;93095.13;5015355;28;20019;-92
2021/01/09 09:19:24;;;;;;;5.78;3.67;;;;;;;2.44;100.00;93102.44;5016937;28;20136;-93
2021/01/09 09:21:56;;;;;;;;;;;;;;;2.56;100.00;93111.28;5016708;28;20068;-92
2021/01/09 09:24:38;;;;;;;7.70;5.45;;;;;;;2.65;100.00;93115.34;5015417;28;19944;-93
2021/01/09 09:27:19;;;;;;;11.10;5.07;;;;;;;2.79;100.00;93108.03;5033267;28;20042;-91
2021/01/09 09:29:45;;;;;;;8.00;3.90;;;;;;;2.78;100.00;93101.38;5032428;28;20485;-89
2021/01/09 09:32:21;;;;;;;;;;;;;;;2.77;100.00;93100.56;5029622;28;20045;-91
2021/01/09 09:34:48;;;;;;;5.85;3.60;;;;;;;2.77;100.00;93097.22;5023475;28;19928;-90
2021/01/09 09:37:14;;;;;;;;;;;;;;;2.76;100.00;93100.72;5012966;28;20453;-92
2021/01/09 09:39:41;;;;;;;4.72;3.10;;;;;;;2.82;100.00;93115.28;5022490;28;19928;-92
2021/01/09 09:42:07;;;;;;;6.13;3.47;;;;;;;2.93;100.00;93109.09;5032874;28;20077;-93
2021/01/09 09:44:36;;;;;;;4.97;2.75;;;;;;;3.02;100.00;93100.47;5032952;28;20052;-93
2021/01/09 09:47:03;;;;;;;8.68;4.25;;;;;;;3.02;100.00;93090.31;5032127;28;20060;-93
2021/01/09 09:49:29;;;;;;;6.97;3.78;;;;;;;3.21;100.00;93093.41;5032647;28;20168;-92
2021/01/09 09:51:56;;;;;;;7.15;3.50;;;;;;;3.30;100.00;93061.16;5032375;28;20045;-93
2021/01/09 09:54:29;;;;;;;6.07;2.92;;;;;;;3.57;100.00;93074.31;5032971;28;20052;-94
2021/01/09 09:56:57;;;;;;;5.57;3.42;;;;;;;3.85;98.36;93073.78;5032485;28;20156;-93
2021/01/09 09:59:28;;;;;;;5.80;1.98;;;;;;;3.93;94.75;93057.69;5032386;28;20411;-92
2021/01/09 10:01:59;;;;;;;5.20;2.58;;;;;;;3.85;94.16;93073.78;5032378;28;20577;-92
2021/01/09 10:04:26;;;;;;;3.00;2.22;;;;;;;3.82;93.09;93062.19;5032306;28;20133;-91
2021/01/09 10:06:52;;;;;;;5.63;2.67;;;;;;;3.68;94.03;93058.66;5031880;28;20053;-91
2021/01/09 10:09:19;;;;;;;;;;;;;;;3.93;95.33;93055.91;5032937;28;20041;-87
2021/01/09 10:11:47;;;;;;;3.20;1.85;;;;;;;3.87;95.73;93056.59;5024331;28;19926;-89
2021/01/09 10:14:14;;;;;;;2.80;1.80;;;;;;;3.88;96.06;93038.66;5012505;28;20049;-89
2021/01/09 10:16:41;;;;;;;2.55;1.70;;;;;;;3.88;94.52;93061.50;5014268;28;20046;-91
2021/01/09 10:19:09;;;;;;;3.42;2.67;;;;;;;3.91;95.23;93045.13;5031603;28;20421;-91
2021/01/09 10:21:37;;;;;;;2.35;1.48;;;;;;;3.75;94.80;93020.63;5032114;28;20050;-90
2021/01/09 10:24:03;;;;;;;4.97;2.60;;;;;;;3.94;94.49;93039.69;5032156;28;20049;-89
2021/01/09 10:26:31;;;;;;;3.30;2.10;;;;;;;4.03;93.45;93065.81;5014046;28;20049;-91
2021/01/09 10:28:58;;;;;;;4.35;2.40;;;;;;;4.10;94.69;93060.84;5012044;28;20060;-90
2021/01/09 10:31:36;;;;;;;3.63;2.03;;;;;;;4.10;94.75;93061.66;5011964;28;20570;-92
2021/01/09 10:34:03;;;;;;;7.70;3.33;;;;;;;3.85;94.45;93036.44;5012057;28;20065;-90
2021/01/09 10:36:32;;;;;;;5.60;2.90;;;;;;;3.84;95.36;93036.63;5012084;28;20054;-88
2021/01/09 10:38:59;;;;;;;4.20;2.25;;;;;;;3.82;94.91;93046.16;5011835;28;20054;-88
2021/01/09 10:41:26;;;;;;;2.65;1.42;;;;;;;3.74;96.07;93044.47;5011878;28;20410;-87
2021/01/09 10:43:53;;;;;;;3.78;2.08;;;;;;;3.39;96.26;93046.66;5011911;28;20054;-87
2021/01/09 10:46:23;;;;;;;5.07;2.35;;;;;;;3.17;98.99;93032.03;5011807;28;20056;-86
2021/01/09 10:48:51;;;;;;;5.72;2.63;;;;;;;3.31;99.10;93050.81;5011930;28;20042;-87
2021/01/09 10:51:18;;;;;;;3.70;1.98;;;;;;;3.09;99.49;93057.44;5011966;28;20049;-87
2021/01/09 10:53:44;;;;;;;6.95;3.58;;;;;;;3.17;99.80;93061.69;5011721;28;20510;-88
2021/01/09 10:56:11;;;;;;;5.07;3.20;;;;;;;3.13;100.00;93053.63;5011762;28;20065;-88
2021/01/09 10:58:38;;;;;;;5.20;2.85;;;;;;;3.18;100.00;93042.97;5011451;28;20512;-87
2021/01/09 11:01:05;;;;;;;2.13;1.50;;;;;;;2.85;99.19;93049.00;5011798;28;20046;-90
2021/01/09 11:03:32;;;;;;;3.33;1.92;;;;;;;2.53;100.00;93058.34;5011161;28;20413;-88
2021/01/09 11:05:59;;;;;;;5.00;2.45;;;;;;;2.51;100.00;93062.78;5011442;28;20050;-90
2021/01/09 11:08:27;;;;;;;2.05;1.40;;;;;;;2.29;100.00;93075.19;5011455;28;20042;-90
2021/01/09 11:10:53;;;;;;;3.88;2.08;;;;;;;1.96;100.00;93070.19;5012032;28;20050;-89
2021/01/09 11:13:20;;;;;;;2.60;1.58;;;;;;;1.84;100.00;93070.50;5030854;28;20045;-90
2021/01/09 11:15:47;;;;;;;;;;;;;;;1.44;100.00;93016.41;5031798;28;20053;-88
2021/01/09 11:18:13;;;;;;;11.43;3.97;;;;;;;1.75;100.00;93050.44;5031098;28;20262;-89
2021/01/09 11:20:39;;;;;;;7.68;4.28;;;;;;;1.94;100.00;93056.91;5031146;28;20057;-89
2021/01/09 11:23:07;;;;;;;4.25;3.10;;;;;;;2.00;100.00;93063.84;5031025;28;20055;-90
2021/01/09 11:25:33;;;;;;;3.55;2.42;;;;;;;2.07;100.00;93047.06;5030848;28;20061;-90
2021/01/09 11:27:59;;;;;;;7.30;4.25;;;;;;;2.06;100.00;93044.66;5030933;28;20048;-89
2021/01/09 11:30:26;;;;;;;6.47;3.30;;;;;;;2.09;100.00;93051.97;5031019;28;20045;-88
2021/01/09 11:32:52;;;;;;;27.75;10.23;;;;;;;1.74;100.00;93034.44;5030795;28;20117;-89
2021/01/09 11:35:18;;;;;;;;;;;;;;;1.64;100.00;93038.88;5031429;28;20042;-89
2021/01/09 11:37:44;;;;;;;4.97;2.22;;;;;;;1.44;100.00;93039.97;5030802;28;20476;-87
2021/01/09 11:40:12;;;;;;;2.65;1.50;;;;;;;1.46;100.00;93045.69;5030869;28;20103;-87
2021/01/09 11:42:38;;;;;;;5.45;2.10;;;;;;;1.52;100.00;93046.00;5030750;28;20095;-89
2021/01/09 11:45:05;;;;;;;4.82;1.92;;;;;;;1.54;100.00;93057.56;5030955;28;20589;-87